sensor_id;sensor_type;location;lat;lon;timestamp;P1;durP1;ratioP1;P2;durP2;ratioP2
4450;SDS011;2238;50.180;9.230;2023-02-28T00:01:59;4.50;;;4.20;;
4450;SDS011;2238;50.180;9.230;2023-02-28T00:05:00;5.27;;;4.60;;
4450;SDS011;2238;50.180;9.230;2023-02-28T00:08:03;6.23;;;5.63;;
4450;SDS011;2238;50.180;9.230;2023-02-28T00:11:05;5.77;;;5.27;;
4450;SDS011;2238;50.180;9.230;2023-02-28T00:14:07;6.37;;;5.77;;
4450;SDS011;2238;50.180;9.230;2023-02-28T00:17:08;5.50;;;5.10;;
4450;SDS011;2238;50.180;9.230;2023-02-28T00:20:09;7.50;;;5.60;;
4450;SDS011;2238;50.180;9.230;2023-02-28T00:23:11;6.23;;;5.73;;
4450;SDS011;2238;50.180;9.230;2023-02-28T00:26:12;7.30;;;6.53;;
4450;SDS011;2238;50.180;9.230;2023-02-28T00:29:13;6.40;;;5.90;;
4450;SDS011;2238;50.180;9.230;2023-02-28T00:32:13;6.40;;;5.90;;
4450;SDS011;2238;50.180;9.230;2023-02-28T00:35:14;6.53;;;5.83;;
4450;SDS011;2238;50.180;9.230;2023-02-28T00:38:15;6.17;;;5.63;;
4450;SDS011;2238;50.180;9.230;2023-02-28T00:41:15;6.50;;;5.90;;
4450;SDS011;2238;50.180;9.230;2023-02-28T00:44:16;6.40;;;5.90;;
4450;SDS011;2238;50.180;9.230;2023-02-28T00:47:17;7.00;;;6.30;;
4450;SDS011;2238;50.180;9.230;2023-02-28T00:50:18;6.60;;;6.00;;
4450;SDS011;2238;50.180;9.230;2023-02-28T00:53:20;6.67;;;5.20;;
4450;SDS011;2238;50.180;9.230;2023-02-28T00:56:20;6.30;;;5.80;;
4450;SDS011;2238;50.180;9.230;2023-02-28T00:59:21;5.93;;;5.47;;
4450;SDS011;2238;50.180;9.230;2023-02-28T01:02:22;6.07;;;5.57;;
4450;SDS011;2238;50.180;9.230;2023-02-28T01:05:22;6.10;;;5.63;;
4450;SDS011;2238;50.180;9.230;2023-02-28T01:08:23;6.43;;;5.93;;
4450;SDS011;2238;50.180;9.230;2023-02-28T01:11:25;5.47;;;4.97;;
4450;SDS011;2238;50.180;9.230;2023-02-28T01:14:26;6.53;;;5.83;;
4450;SDS011;2238;50.180;9.230;2023-02-28T01:17:27;5.80;;;5.23;;
4450;SDS011;2238;50.180;9.230;2023-02-28T01:20:27;6.37;;;5.77;;
4450;SDS011;2238;50.180;9.230;2023-02-28T01:23:28;6.80;;;6.10;;
4450;SDS011;2238;50.180;9.230;2023-02-28T01:26:28;5.13;;;4.73;;
4450;SDS011;2238;50.180;9.230;2023-02-28T01:29:29;5.83;;;5.27;;
4450;SDS011;2238;50.180;9.230;2023-02-28T01:32:30;6.07;;;5.47;;
4450;SDS011;2238;50.180;9.230;2023-02-28T01:35:34;6.30;;;5.67;;
4450;SDS011;2238;50.180;9.230;2023-02-28T01:38:36;5.47;;;4.93;;
4450;SDS011;2238;50.180;9.230;2023-02-28T01:41:36;6.07;;;5.47;;
4450;SDS011;2238;50.180;9.230;2023-02-28T01:48:02;5.03;;;4.63;;
4450;SDS011;2238;50.180;9.230;2023-02-28T01:51:07;4.70;;;4.30;;
4450;SDS011;2238;50.180;9.230;2023-02-28T01:54:15;5.33;;;4.83;;
4450;SDS011;2238;50.180;9.230;2023-02-28T01:57:21;4.90;;;4.60;;
4450;SDS011;2238;50.180;9.230;2023-02-28T02:00:25;5.17;;;4.80;;
4450;SDS011;2238;50.180;9.230;2023-02-28T02:03:26;5.73;;;5.30;;
4450;SDS011;2238;50.180;9.230;2023-02-28T02:06:29;5.20;;;4.80;;
4450;SDS011;2238;50.180;9.230;2023-02-28T02:09:35;5.30;;;4.90;;
4450;SDS011;2238;50.180;9.230;2023-02-28T02:16:02;6.03;;;5.40;;
4450;SDS011;2238;50.180;9.230;2023-02-28T02:26:53;4.33;;;4.03;;
4450;SDS011;2238;50.180;9.230;2023-02-28T02:36:42;4.80;;;4.40;;
4450;SDS011;2238;50.180;9.230;2023-02-28T02:40:35;5.30;;;4.90;;
4450;SDS011;2238;50.180;9.230;2023-02-28T02:43:53;5.10;;;4.70;;
4450;SDS011;2238;50.180;9.230;2023-02-28T02:46:48;5.60;;;5.20;;
4450;SDS011;2238;50.180;9.230;2023-02-28T02:49:55;6.20;;;5.40;;
4450;SDS011;2238;50.180;9.230;2023-02-28T02:52:59;4.87;;;4.47;;
4450;SDS011;2238;50.180;9.230;2023-02-28T02:56:02;5.83;;;5.43;;
4450;SDS011;2238;50.180;9.230;2023-02-28T02:59:06;6.10;;;5.20;;
4450;SDS011;2238;50.180;9.230;2023-02-28T03:02:11;5.73;;;5.30;;
4450;SDS011;2238;50.180;9.230;2023-02-28T03:05:23;6.27;;;5.67;;
4450;SDS011;2238;50.180;9.230;2023-02-28T03:08:26;5.47;;;5.07;;
4450;SDS011;2238;50.180;9.230;2023-02-28T03:11:27;5.63;;;5.13;;
4450;SDS011;2238;50.180;9.230;2023-02-28T03:18:17;6.57;;;5.60;;
4450;SDS011;2238;50.180;9.230;2023-02-28T03:21:34;6.73;;;5.30;;
4450;SDS011;2238;50.180;9.230;2023-02-28T03:28:17;6.67;;;6.13;;
4450;SDS011;2238;50.180;9.230;2023-02-28T03:31:27;5.60;;;5.10;;
4450;SDS011;2238;50.180;9.230;2023-02-28T03:34:38;5.50;;;5.10;;
4450;SDS011;2238;50.180;9.230;2023-02-28T03:37:43;6.07;;;5.60;;
4450;SDS011;2238;50.180;9.230;2023-02-28T03:40:50;7.53;;;5.27;;
4450;SDS011;2238;50.180;9.230;2023-02-28T03:43:56;7.17;;;5.30;;
4450;SDS011;2238;50.180;9.230;2023-02-28T03:47:09;6.67;;;5.40;;
4450;SDS011;2238;50.180;9.230;2023-02-28T03:50:18;6.27;;;5.77;;
4450;SDS011;2238;50.180;9.230;2023-02-28T03:53:26;6.73;;;6.10;;
4450;SDS011;2238;50.180;9.230;2023-02-28T03:56:40;6.53;;;6.03;;
4450;SDS011;2238;50.180;9.230;2023-02-28T04:00:20;5.70;;;5.30;;
4450;SDS011;2238;50.180;9.230;2023-02-28T04:03:28;5.33;;;5.03;;
4450;SDS011;2238;50.180;9.230;2023-02-28T04:06:30;5.97;;;5.43;;
4450;SDS011;2238;50.180;9.230;2023-02-28T04:09:32;6.27;;;5.67;;
4450;SDS011;2238;50.180;9.230;2023-02-28T04:12:33;5.93;;;5.37;;
4450;SDS011;2238;50.180;9.230;2023-02-28T04:15:34;6.43;;;5.70;;
4450;SDS011;2238;50.180;9.230;2023-02-28T04:18:34;6.07;;;5.50;;
4450;SDS011;2238;50.180;9.230;2023-02-28T04:21:35;5.70;;;4.70;;
4450;SDS011;2238;50.180;9.230;2023-02-28T04:24:38;5.07;;;4.67;;
4450;SDS011;2238;50.180;9.230;2023-02-28T04:27:41;5.93;;;5.00;;
4450;SDS011;2238;50.180;9.230;2023-02-28T04:30:44;7.50;;;4.80;;
4450;SDS011;2238;50.180;9.230;2023-02-28T04:33:44;6.73;;;6.13;;
4450;SDS011;2238;50.180;9.230;2023-02-28T04:36:45;5.30;;;4.90;;
4450;SDS011;2238;50.180;9.230;2023-02-28T04:39:46;5.23;;;4.73;;
4450;SDS011;2238;50.180;9.230;2023-02-28T04:42:46;5.67;;;5.27;;
4450;SDS011;2238;50.180;9.230;2023-02-28T04:45:47;5.73;;;5.23;;
4450;SDS011;2238;50.180;9.230;2023-02-28T04:48:47;6.20;;;5.63;;
4450;SDS011;2238;50.180;9.230;2023-02-28T04:51:48;5.57;;;5.17;;
4450;SDS011;2238;50.180;9.230;2023-02-28T04:54:49;6.53;;;5.10;;
4450;SDS011;2238;50.180;9.230;2023-02-28T04:57:50;5.47;;;5.07;;
4450;SDS011;2238;50.180;9.230;2023-02-28T05:00:51;4.90;;;4.50;;
4450;SDS011;2238;50.180;9.230;2023-02-28T05:03:53;6.13;;;5.40;;
4450;SDS011;2238;50.180;9.230;2023-02-28T05:06:55;5.50;;;5.10;;
4450;SDS011;2238;50.180;9.230;2023-02-28T05:09:56;5.40;;;5.00;;
4450;SDS011;2238;50.180;9.230;2023-02-28T05:12:56;5.60;;;5.10;;
4450;SDS011;2238;50.180;9.230;2023-02-28T05:15:57;5.07;;;4.67;;
4450;SDS011;2238;50.180;9.230;2023-02-28T05:18:58;5.27;;;4.77;;
4450;SDS011;2238;50.180;9.230;2023-02-28T05:21:58;5.40;;;4.90;;
4450;SDS011;2238;50.180;9.230;2023-02-28T05:24:59;6.23;;;5.10;;
4450;SDS011;2238;50.180;9.230;2023-02-28T05:28:00;5.73;;;5.17;;
4450;SDS011;2238;50.180;9.230;2023-02-28T05:31:00;5.63;;;5.20;;
4450;SDS011;2238;50.180;9.230;2023-02-28T05:34:01;6.60;;;4.60;;
4450;SDS011;2238;50.180;9.230;2023-02-28T05:37:04;5.77;;;5.27;;
4450;SDS011;2238;50.180;9.230;2023-02-28T05:40:06;5.73;;;5.23;;
4450;SDS011;2238;50.180;9.230;2023-02-28T05:43:10;5.23;;;4.73;;
4450;SDS011;2238;50.180;9.230;2023-02-28T05:46:11;5.80;;;4.90;;
4450;SDS011;2238;50.180;9.230;2023-02-28T05:49:13;5.73;;;5.13;;
4450;SDS011;2238;50.180;9.230;2023-02-28T05:52:13;6.27;;;5.67;;
4450;SDS011;2238;50.180;9.230;2023-02-28T05:55:14;4.63;;;4.23;;
4450;SDS011;2238;50.180;9.230;2023-02-28T05:58:14;4.70;;;4.30;;
4450;SDS011;2238;50.180;9.230;2023-02-28T06:01:30;5.03;;;4.47;;
4450;SDS011;2238;50.180;9.230;2023-02-28T06:04:35;5.37;;;4.97;;
4450;SDS011;2238;50.180;9.230;2023-02-28T06:07:36;5.37;;;4.97;;
4450;SDS011;2238;50.180;9.230;2023-02-28T06:10:37;6.13;;;5.60;;
4450;SDS011;2238;50.180;9.230;2023-02-28T06:13:38;5.10;;;4.70;;
4450;SDS011;2238;50.180;9.230;2023-02-28T06:16:39;5.53;;;4.93;;
4450;SDS011;2238;50.180;9.230;2023-02-28T06:19:39;4.27;;;3.97;;
4450;SDS011;2238;50.180;9.230;2023-02-28T06:22:41;6.17;;;5.57;;
4450;SDS011;2238;50.180;9.230;2023-02-28T06:25:44;5.00;;;4.60;;
4450;SDS011;2238;50.180;9.230;2023-02-28T06:28:45;8.50;;;7.70;;
4450;SDS011;2238;50.180;9.230;2023-02-28T06:31:46;5.10;;;4.70;;
4450;SDS011;2238;50.180;9.230;2023-02-28T06:34:47;4.97;;;4.63;;
4450;SDS011;2238;50.180;9.230;2023-02-28T06:37:48;6.00;;;5.40;;
4450;SDS011;2238;50.180;9.230;2023-02-28T06:40:55;5.73;;;5.17;;
4450;SDS011;2238;50.180;9.230;2023-02-28T06:43:57;6.10;;;5.50;;
4450;SDS011;2238;50.180;9.230;2023-02-28T06:46:57;7.10;;;6.23;;
4450;SDS011;2238;50.180;9.230;2023-02-28T06:49:58;9.30;;;5.60;;
4450;SDS011;2238;50.180;9.230;2023-02-28T06:53:01;5.20;;;4.70;;
4450;SDS011;2238;50.180;9.230;2023-02-28T06:56:05;5.77;;;5.27;;
4450;SDS011;2238;50.180;9.230;2023-02-28T06:59:07;5.57;;;5.07;;
4450;SDS011;2238;50.180;9.230;2023-02-28T07:02:08;5.60;;;5.00;;
4450;SDS011;2238;50.180;9.230;2023-02-28T07:05:08;6.33;;;5.73;;
4450;SDS011;2238;50.180;9.230;2023-02-28T07:08:09;6.40;;;5.83;;
4450;SDS011;2238;50.180;9.230;2023-02-28T07:11:09;6.10;;;5.50;;
4450;SDS011;2238;50.180;9.230;2023-02-28T07:14:10;6.13;;;4.93;;
4450;SDS011;2238;50.180;9.230;2023-02-28T07:17:11;5.97;;;5.37;;
4450;SDS011;2238;50.180;9.230;2023-02-28T07:20:12;5.60;;;5.00;;
4450;SDS011;2238;50.180;9.230;2023-02-28T07:23:13;5.80;;;5.30;;
4450;SDS011;2238;50.180;9.230;2023-02-28T07:26:14;6.10;;;5.60;;
4450;SDS011;2238;50.180;9.230;2023-02-28T07:29:16;5.17;;;4.67;;
4450;SDS011;2238;50.180;9.230;2023-02-28T07:32:17;6.23;;;5.50;;
4450;SDS011;2238;50.180;9.230;2023-02-28T07:35:18;5.83;;;5.43;;
4450;SDS011;2238;50.180;9.230;2023-02-28T07:38:19;6.00;;;5.33;;
4450;SDS011;2238;50.180;9.230;2023-02-28T07:41:20;7.13;;;6.50;;
4450;SDS011;2238;50.180;9.230;2023-02-28T07:44:21;6.00;;;4.87;;
4450;SDS011;2238;50.180;9.230;2023-02-28T07:47:22;5.90;;;5.30;;
4450;SDS011;2238;50.180;9.230;2023-02-28T07:50:23;6.23;;;5.73;;
4450;SDS011;2238;50.180;9.230;2023-02-28T07:53:23;5.43;;;5.03;;
4450;SDS011;2238;50.180;9.230;2023-02-28T07:56:24;12.00;;;7.10;;
4450;SDS011;2238;50.180;9.230;2023-02-28T07:59:25;6.30;;;5.70;;
4450;SDS011;2238;50.180;9.230;2023-02-28T08:02:25;37.27;;;20.77;;
4450;SDS011;2238;50.180;9.230;2023-02-28T08:05:26;8.43;;;7.53;;
4450;SDS011;2238;50.180;9.230;2023-02-28T08:08:26;10.23;;;7.30;;
4450;SDS011;2238;50.180;9.230;2023-02-28T08:11:31;6.10;;;5.60;;
4450;SDS011;2238;50.180;9.230;2023-02-28T08:14:31;5.60;;;5.10;;
4450;SDS011;2238;50.180;9.230;2023-02-28T08:17:32;5.27;;;4.87;;
4450;SDS011;2238;50.180;9.230;2023-02-28T08:20:33;5.03;;;4.63;;
4450;SDS011;2238;50.180;9.230;2023-02-28T08:23:33;5.90;;;5.03;;
4450;SDS011;2238;50.180;9.230;2023-02-28T08:26:35;6.40;;;5.90;;
4450;SDS011;2238;50.180;9.230;2023-02-28T08:29:38;5.73;;;5.00;;
4450;SDS011;2238;50.180;9.230;2023-02-28T08:32:39;5.40;;;5.00;;
4450;SDS011;2238;50.180;9.230;2023-02-28T08:35:40;9.50;;;8.50;;
4450;SDS011;2238;50.180;9.230;2023-02-28T08:38:41;5.13;;;4.73;;
4450;SDS011;2238;50.180;9.230;2023-02-28T08:41:42;7.67;;;6.10;;
4450;SDS011;2238;50.180;9.230;2023-02-28T08:44:43;6.90;;;6.40;;
4450;SDS011;2238;50.180;9.230;2023-02-28T08:47:44;5.60;;;5.10;;
4450;SDS011;2238;50.180;9.230;2023-02-28T08:50:54;10.07;;;7.50;;
4450;SDS011;2238;50.180;9.230;2023-02-28T08:54:02;8.70;;;7.57;;
4450;SDS011;2238;50.180;9.230;2023-02-28T08:57:03;7.37;;;6.33;;
4450;SDS011;2238;50.180;9.230;2023-02-28T09:00:04;8.00;;;7.20;;
4450;SDS011;2238;50.180;9.230;2023-02-28T09:03:05;7.10;;;6.40;;
4450;SDS011;2238;50.180;9.230;2023-02-28T09:06:05;9.40;;;6.53;;
4450;SDS011;2238;50.180;9.230;2023-02-28T09:09:06;10.80;;;6.97;;
4450;SDS011;2238;50.180;9.230;2023-02-28T09:12:07;10.47;;;9.37;;
4450;SDS011;2238;50.180;9.230;2023-02-28T09:15:08;7.00;;;6.43;;
4450;SDS011;2238;50.180;9.230;2023-02-28T09:18:09;8.90;;;8.00;;
4450;SDS011;2238;50.180;9.230;2023-02-28T09:21:10;8.80;;;7.80;;
4450;SDS011;2238;50.180;9.230;2023-02-28T09:24:14;7.07;;;6.37;;
4450;SDS011;2238;50.180;9.230;2023-02-28T09:27:15;8.00;;;7.20;;
4450;SDS011;2238;50.180;9.230;2023-02-28T09:30:15;5.37;;;4.87;;
4450;SDS011;2238;50.180;9.230;2023-02-28T09:33:16;6.03;;;5.43;;
4450;SDS011;2238;50.180;9.230;2023-02-28T09:36:21;7.60;;;6.90;;
4450;SDS011;2238;50.180;9.230;2023-02-28T09:39:23;11.17;;;10.03;;
4450;SDS011;2238;50.180;9.230;2023-02-28T09:42:27;8.93;;;8.13;;
4450;SDS011;2238;50.180;9.230;2023-02-28T09:45:36;8.20;;;7.30;;
4450;SDS011;2238;50.180;9.230;2023-02-28T09:48:41;9.97;;;8.80;;
4450;SDS011;2238;50.180;9.230;2023-02-28T09:52:01;6.07;;;5.57;;
4450;SDS011;2238;50.180;9.230;2023-02-28T09:55:26;7.00;;;6.40;;
4450;SDS011;2238;50.180;9.230;2023-02-28T09:58:47;6.47;;;5.80;;
4450;SDS011;2238;50.180;9.230;2023-02-28T10:05:02;13.73;;;10.47;;
4450;SDS011;2238;50.180;9.230;2023-02-28T10:11:17;8.43;;;7.70;;
4450;SDS011;2238;50.180;9.230;2023-02-28T10:14:28;8.90;;;8.10;;
4450;SDS011;2238;50.180;9.230;2023-02-28T10:17:35;6.73;;;6.23;;
4450;SDS011;2238;50.180;9.230;2023-02-28T10:20:39;6.87;;;6.00;;
4450;SDS011;2238;50.180;9.230;2023-02-28T10:23:42;7.10;;;6.40;;
4450;SDS011;2238;50.180;9.230;2023-02-28T10:26:45;7.20;;;6.50;;
4450;SDS011;2238;50.180;9.230;2023-02-28T10:29:51;6.20;;;5.70;;
4450;SDS011;2238;50.180;9.230;2023-02-28T10:33:14;6.80;;;6.13;;
4450;SDS011;2238;50.180;9.230;2023-02-28T10:36:19;7.30;;;6.60;;
4450;SDS011;2238;50.180;9.230;2023-02-28T10:39:33;8.97;;;7.67;;
4450;SDS011;2238;50.180;9.230;2023-02-28T10:42:41;9.23;;;8.33;;
4450;SDS011;2238;50.180;9.230;2023-02-28T10:45:52;7.90;;;7.13;;
4450;SDS011;2238;50.180;9.230;2023-02-28T10:49:00;8.07;;;6.50;;
4450;SDS011;2238;50.180;9.230;2023-02-28T10:52:03;8.40;;;7.60;;
4450;SDS011;2238;50.180;9.230;2023-02-28T10:55:14;8.20;;;7.40;;
4450;SDS011;2238;50.180;9.230;2023-02-28T10:58:24;9.97;;;7.63;;
4450;SDS011;2238;50.180;9.230;2023-02-28T11:01:39;8.50;;;7.80;;
4450;SDS011;2238;50.180;9.230;2023-02-28T11:04:41;6.87;;;6.27;;
4450;SDS011;2238;50.180;9.230;2023-02-28T11:07:42;7.60;;;6.80;;
4450;SDS011;2238;50.180;9.230;2023-02-28T11:11:03;7.40;;;6.80;;
4450;SDS011;2238;50.180;9.230;2023-02-28T11:14:06;7.30;;;6.60;;
4450;SDS011;2238;50.180;9.230;2023-02-28T11:17:37;8.43;;;7.73;;
4450;SDS011;2238;50.180;9.230;2023-02-28T11:20:38;8.63;;;7.83;;
4450;SDS011;2238;50.180;9.230;2023-02-28T11:23:40;9.13;;;8.23;;
4450;SDS011;2238;50.180;9.230;2023-02-28T11:26:42;8.50;;;7.77;;
4450;SDS011;2238;50.180;9.230;2023-02-28T11:29:46;8.67;;;6.77;;
4450;SDS011;2238;50.180;9.230;2023-02-28T11:32:48;8.83;;;7.87;;
4450;SDS011;2238;50.180;9.230;2023-02-28T11:35:49;8.23;;;7.50;;
4450;SDS011;2238;50.180;9.230;2023-02-28T11:38:51;11.53;;;9.10;;
4450;SDS011;2238;50.180;9.230;2023-02-28T11:45:14;8.77;;;8.07;;
4450;SDS011;2238;50.180;9.230;2023-02-28T11:48:33;9.87;;;8.97;;
4450;SDS011;2238;50.180;9.230;2023-02-28T12:06:13;8.77;;;7.90;;
4450;SDS011;2238;50.180;9.230;2023-02-28T12:08:53;9.03;;;8.17;;
4450;SDS011;2238;50.180;9.230;2023-02-28T12:18:48;9.57;;;8.60;;
4450;SDS011;2238;50.180;9.230;2023-02-28T12:22:09;9.30;;;7.90;;
4450;SDS011;2238;50.180;9.230;2023-02-28T12:28:24;7.60;;;6.90;;
4450;SDS011;2238;50.180;9.230;2023-02-28T12:31:29;16.37;;;12.63;;
4450;SDS011;2238;50.180;9.230;2023-02-28T12:34:44;17.47;;;13.50;;
4450;SDS011;2238;50.180;9.230;2023-02-28T12:38:12;13.90;;;10.30;;
4450;SDS011;2238;50.180;9.230;2023-02-28T12:41:19;9.33;;;8.43;;
4450;SDS011;2238;50.180;9.230;2023-02-28T12:44:28;9.97;;;9.00;;
4450;SDS011;2238;50.180;9.230;2023-02-28T12:47:52;12.90;;;10.70;;
4450;SDS011;2238;50.180;9.230;2023-02-28T12:51:03;11.73;;;9.63;;
4450;SDS011;2238;50.180;9.230;2023-02-28T13:00:56;8.80;;;8.00;;
4450;SDS011;2238;50.180;9.230;2023-02-28T13:10:47;9.70;;;8.80;;
4450;SDS011;2238;50.180;9.230;2023-02-28T13:13:57;9.50;;;8.60;;
4450;SDS011;2238;50.180;9.230;2023-02-28T13:19:59;9.00;;;8.20;;
4450;SDS011;2238;50.180;9.230;2023-02-28T13:23:00;10.47;;;9.00;;
4450;SDS011;2238;50.180;9.230;2023-02-28T13:26:05;10.90;;;9.90;;
4450;SDS011;2238;50.180;9.230;2023-02-28T13:32:20;9.40;;;8.50;;
4450;SDS011;2238;50.180;9.230;2023-02-28T13:35:36;8.63;;;7.83;;
4450;SDS011;2238;50.180;9.230;2023-02-28T13:38:52;8.20;;;7.37;;
4450;SDS011;2238;50.180;9.230;2023-02-28T13:45:28;13.77;;;9.43;;
4450;SDS011;2238;50.180;9.230;2023-02-28T13:48:30;10.03;;;9.00;;
4450;SDS011;2238;50.180;9.230;2023-02-28T13:51:38;9.70;;;8.77;;
4450;SDS011;2238;50.180;9.230;2023-02-28T13:54:50;9.80;;;8.97;;
4450;SDS011;2238;50.180;9.230;2023-02-28T14:01:46;10.33;;;9.30;;
4450;SDS011;2238;50.180;9.230;2023-02-28T14:05:02;10.33;;;9.43;;
4450;SDS011;2238;50.180;9.230;2023-02-28T14:11:24;10.60;;;9.40;;
4450;SDS011;2238;50.180;9.230;2023-02-28T14:17:37;10.10;;;8.37;;
4450;SDS011;2238;50.180;9.230;2023-02-28T14:20:38;10.37;;;9.13;;
4450;SDS011;2238;50.180;9.230;2023-02-28T14:37:09;10.00;;;9.00;;
4450;SDS011;2238;50.180;9.230;2023-02-28T14:40:16;11.70;;;10.20;;
4450;SDS011;2238;50.180;9.230;2023-02-28T14:43:22;13.23;;;11.50;;
4450;SDS011;2238;50.180;9.230;2023-02-28T14:46:38;10.83;;;9.60;;
4450;SDS011;2238;50.180;9.230;2023-02-28T14:49:44;11.33;;;10.17;;
4450;SDS011;2238;50.180;9.230;2023-02-28T14:52:46;10.77;;;9.50;;
4450;SDS011;2238;50.180;9.230;2023-02-28T14:55:51;14.13;;;12.83;;
4450;SDS011;2238;50.180;9.230;2023-02-28T14:58:54;9.80;;;8.80;;
4450;SDS011;2238;50.180;9.230;2023-02-28T15:05:22;10.53;;;9.50;;
4450;SDS011;2238;50.180;9.230;2023-02-28T15:08:24;10.27;;;9.23;;
4450;SDS011;2238;50.180;9.230;2023-02-28T15:11:28;10.97;;;9.90;;
4450;SDS011;2238;50.180;9.230;2023-02-28T15:14:29;11.20;;;8.83;;
4450;SDS011;2238;50.180;9.230;2023-02-28T15:17:31;11.93;;;8.20;;
4450;SDS011;2238;50.180;9.230;2023-02-28T15:20:31;9.40;;;8.40;;
4450;SDS011;2238;50.180;9.230;2023-02-28T15:23:34;10.13;;;8.20;;
4450;SDS011;2238;50.180;9.230;2023-02-28T15:26:40;9.60;;;8.60;;
4450;SDS011;2238;50.180;9.230;2023-02-28T15:29:49;12.03;;;10.63;;
4450;SDS011;2238;50.180;9.230;2023-02-28T15:33:03;10.57;;;8.30;;
4450;SDS011;2238;50.180;9.230;2023-02-28T15:36:15;13.10;;;9.90;;
4450;SDS011;2238;50.180;9.230;2023-02-28T15:39:24;9.03;;;8.13;;
4450;SDS011;2238;50.180;9.230;2023-02-28T15:42:29;11.40;;;9.10;;
4450;SDS011;2238;50.180;9.230;2023-02-28T15:48:51;17.50;;;11.07;;
4450;SDS011;2238;50.180;9.230;2023-02-28T15:51:55;7.83;;;7.00;;
4450;SDS011;2238;50.180;9.230;2023-02-28T15:54:58;9.27;;;8.33;;
4450;SDS011;2238;50.180;9.230;2023-02-28T15:58:08;15.20;;;13.00;;
4450;SDS011;2238;50.180;9.230;2023-02-28T16:01:20;11.67;;;10.30;;
4450;SDS011;2238;50.180;9.230;2023-02-28T16:04:25;15.70;;;13.33;;
4450;SDS011;2238;50.180;9.230;2023-02-28T16:07:29;21.10;;;16.17;;
4450;SDS011;2238;50.180;9.230;2023-02-28T16:10:30;13.67;;;9.83;;
4450;SDS011;2238;50.180;9.230;2023-02-28T16:13:30;9.30;;;8.40;;
4450;SDS011;2238;50.180;9.230;2023-02-28T16:16:31;8.70;;;7.90;;
4450;SDS011;2238;50.180;9.230;2023-02-28T16:19:33;9.70;;;8.63;;
4450;SDS011;2238;50.180;9.230;2023-02-28T16:22:33;10.33;;;8.43;;
4450;SDS011;2238;50.180;9.230;2023-02-28T16:25:43;11.70;;;8.97;;
4450;SDS011;2238;50.180;9.230;2023-02-28T16:28:46;12.43;;;10.80;;
4450;SDS011;2238;50.180;9.230;2023-02-28T16:31:47;13.40;;;12.07;;
4450;SDS011;2238;50.180;9.230;2023-02-28T16:34:47;19.53;;;13.07;;
4450;SDS011;2238;50.180;9.230;2023-02-28T16:37:48;31.87;;;19.60;;
4450;SDS011;2238;50.180;9.230;2023-02-28T16:40:51;38.20;;;24.60;;
4450;SDS011;2238;50.180;9.230;2023-02-28T16:43:55;32.87;;;21.53;;
4450;SDS011;2238;50.180;9.230;2023-02-28T16:47:00;26.50;;;18.40;;
4450;SDS011;2238;50.180;9.230;2023-02-28T16:50:04;23.43;;;16.50;;
4450;SDS011;2238;50.180;9.230;2023-02-28T16:53:15;21.17;;;15.60;;
4450;SDS011;2238;50.180;9.230;2023-02-28T16:56:19;18.90;;;15.37;;
4450;SDS011;2238;50.180;9.230;2023-02-28T16:59:23;14.47;;;12.17;;
4450;SDS011;2238;50.180;9.230;2023-02-28T17:02:24;14.13;;;10.70;;
4450;SDS011;2238;50.180;9.230;2023-02-28T17:05:25;14.50;;;12.70;;
4450;SDS011;2238;50.180;9.230;2023-02-28T17:08:28;11.57;;;10.30;;
4450;SDS011;2238;50.180;9.230;2023-02-28T17:11:31;12.68;;;11.38;;
4450;SDS011;2238;50.180;9.230;2023-02-28T17:14:32;14.40;;;10.70;;
4450;SDS011;2238;50.180;9.230;2023-02-28T17:17:33;11.47;;;9.97;;
4450;SDS011;2238;50.180;9.230;2023-02-28T17:20:33;12.17;;;10.90;;
4450;SDS011;2238;50.180;9.230;2023-02-28T17:23:34;13.70;;;12.30;;
4450;SDS011;2238;50.180;9.230;2023-02-28T17:26:35;13.73;;;9.23;;
4450;SDS011;2238;50.180;9.230;2023-02-28T17:29:35;12.03;;;10.73;;
4450;SDS011;2238;50.180;9.230;2023-02-28T17:34:05;20.60;;;14.70;;
4450;SDS011;2238;50.180;9.230;2023-02-28T17:37:07;13.30;;;11.80;;
4450;SDS011;2238;50.180;9.230;2023-02-28T17:40:16;19.60;;;14.50;;
4450;SDS011;2238;50.180;9.230;2023-02-28T17:43:19;21.67;;;15.27;;
4450;SDS011;2238;50.180;9.230;2023-02-28T17:46:20;22.73;;;16.67;;
4450;SDS011;2238;50.180;9.230;2023-02-28T17:49:23;24.70;;;17.43;;
4450;SDS011;2238;50.180;9.230;2023-02-28T17:52:23;22.30;;;16.10;;
4450;SDS011;2238;50.180;9.230;2023-02-28T17:55:24;23.37;;;17.00;;
4450;SDS011;2238;50.180;9.230;2023-02-28T17:58:24;21.47;;;17.30;;
4450;SDS011;2238;50.180;9.230;2023-02-28T18:01:25;32.33;;;23.90;;
4450;SDS011;2238;50.180;9.230;2023-02-28T18:04:26;20.30;;;16.03;;
4450;SDS011;2238;50.180;9.230;2023-02-28T18:07:26;18.10;;;14.40;;
4450;SDS011;2238;50.180;9.230;2023-02-28T18:10:27;17.90;;;13.23;;
4450;SDS011;2238;50.180;9.230;2023-02-28T18:13:28;14.20;;;12.17;;
4450;SDS011;2238;50.180;9.230;2023-02-28T18:16:28;15.30;;;11.43;;
4450;SDS011;2238;50.180;9.230;2023-02-28T18:19:29;15.63;;;12.77;;
4450;SDS011;2238;50.180;9.230;2023-02-28T18:22:29;15.10;;;11.50;;
4450;SDS011;2238;50.180;9.230;2023-02-28T18:25:30;12.90;;;11.60;;
4450;SDS011;2238;50.180;9.230;2023-02-28T18:28:31;13.80;;;11.93;;
4450;SDS011;2238;50.180;9.230;2023-02-28T18:31:33;18.33;;;14.50;;
4450;SDS011;2238;50.180;9.230;2023-02-28T18:34:34;10.10;;;8.93;;
4450;SDS011;2238;50.180;9.230;2023-02-28T18:37:34;13.00;;;11.60;;
4450;SDS011;2238;50.180;9.230;2023-02-28T18:40:35;13.53;;;10.37;;
4450;SDS011;2238;50.180;9.230;2023-02-28T18:43:36;11.13;;;9.37;;
4450;SDS011;2238;50.180;9.230;2023-02-28T18:46:38;12.70;;;10.30;;
4450;SDS011;2238;50.180;9.230;2023-02-28T18:49:39;12.03;;;9.57;;
4450;SDS011;2238;50.180;9.230;2023-02-28T18:52:39;11.63;;;10.00;;
4450;SDS011;2238;50.180;9.230;2023-02-28T18:55:40;17.00;;;13.30;;
4450;SDS011;2238;50.180;9.230;2023-02-28T18:58:41;11.87;;;10.67;;
4450;SDS011;2238;50.180;9.230;2023-02-28T19:01:41;48.13;;;24.50;;
4450;SDS011;2238;50.180;9.230;2023-02-28T19:04:43;30.70;;;16.93;;
4450;SDS011;2238;50.180;9.230;2023-02-28T19:07:44;19.20;;;14.50;;
4450;SDS011;2238;50.180;9.230;2023-02-28T19:10:45;51.93;;;29.30;;
4450;SDS011;2238;50.180;9.230;2023-02-28T19:13:46;49.23;;;32.60;;
4450;SDS011;2238;50.180;9.230;2023-02-28T19:16:47;57.00;;;38.63;;
4450;SDS011;2238;50.180;9.230;2023-02-28T19:19:49;46.70;;;36.50;;
4450;SDS011;2238;50.180;9.230;2023-02-28T19:22:49;31.63;;;24.40;;
4450;SDS011;2238;50.180;9.230;2023-02-28T19:25:50;33.40;;;25.67;;
4450;SDS011;2238;50.180;9.230;2023-02-28T19:28:50;32.13;;;24.20;;
4450;SDS011;2238;50.180;9.230;2023-02-28T19:31:51;28.20;;;20.13;;
4450;SDS011;2238;50.180;9.230;2023-02-28T19:34:52;24.60;;;19.40;;
4450;SDS011;2238;50.180;9.230;2023-02-28T19:37:52;27.30;;;19.30;;
4450;SDS011;2238;50.180;9.230;2023-02-28T19:41:00;13.63;;;11.30;;
4450;SDS011;2238;50.180;9.230;2023-02-28T19:44:05;18.07;;;13.33;;
4450;SDS011;2238;50.180;9.230;2023-02-28T19:47:06;18.63;;;14.90;;
4450;SDS011;2238;50.180;9.230;2023-02-28T19:50:07;31.13;;;18.67;;
4450;SDS011;2238;50.180;9.230;2023-02-28T19:53:08;24.40;;;19.07;;
4450;SDS011;2238;50.180;9.230;2023-02-28T19:56:09;43.30;;;22.97;;
4450;SDS011;2238;50.180;9.230;2023-02-28T19:59:10;26.70;;;18.07;;
4450;SDS011;2238;50.180;9.230;2023-02-28T20:02:15;26.80;;;18.07;;
4450;SDS011;2238;50.180;9.230;2023-02-28T20:05:17;26.90;;;16.33;;
4450;SDS011;2238;50.180;9.230;2023-02-28T20:08:17;24.90;;;16.80;;
4450;SDS011;2238;50.180;9.230;2023-02-28T20:11:18;25.90;;;17.80;;
4450;SDS011;2238;50.180;9.230;2023-02-28T20:14:18;33.57;;;21.30;;
4450;SDS011;2238;50.180;9.230;2023-02-28T20:17:19;29.73;;;20.13;;
4450;SDS011;2238;50.180;9.230;2023-02-28T20:20:19;28.73;;;18.40;;
4450;SDS011;2238;50.180;9.230;2023-02-28T20:23:20;28.60;;;18.57;;
4450;SDS011;2238;50.180;9.230;2023-02-28T20:26:21;32.77;;;19.07;;
4450;SDS011;2238;50.180;9.230;2023-02-28T20:29:21;28.17;;;19.27;;
4450;SDS011;2238;50.180;9.230;2023-02-28T20:32:22;25.07;;;16.73;;
4450;SDS011;2238;50.180;9.230;2023-02-28T20:35:22;15.90;;;11.40;;
4450;SDS011;2238;50.180;9.230;2023-02-28T20:38:23;14.90;;;11.77;;
4450;SDS011;2238;50.180;9.230;2023-02-28T20:41:23;19.90;;;14.13;;
4450;SDS011;2238;50.180;9.230;2023-02-28T20:44:24;25.87;;;14.63;;
4450;SDS011;2238;50.180;9.230;2023-02-28T20:47:25;23.80;;;16.40;;
4450;SDS011;2238;50.180;9.230;2023-02-28T20:50:25;35.03;;;20.40;;